Natal, Brazil
Current Conditions -  °F | °C
As of 9:00 AM on Friday 21 Nov 2014 (Local Time) from SBNT Reporting Station
Light Rain Light Rain  
Wind Chill: 27°   Ceiling: 1000
Heat Index: 30°   Visibility: 2.5mi
Dew Point: 23°   Wind: 23mph
Humidity: 79%   Direction: 110°ESE
Pressure: 29.94"   Gusts: NA
Location:  5.8°S, 35.22°W
Report Text: SBNT 211200Z 11020KT 4000 -RA BR BKN010 FEW025TCU BKN080 27/23 Q1014
Loading
Personal Weather Stations






























Interactive Weather Map New forecast layout! Learn more

10-Day Weather Forecast

Advertisements
Track Severe Weather on mobile